Time;durP1;ratioP1;P1;durP2;ratioP2;P2;SDS_P1;SDS_P2;PMS_P1;PMS_P2;Temp;Humidity;BMP_temperature;BMP_pressure;BME280_temperature;BME280_humidity;BME280_pressure;Samples;Min_cycle;Max_cycle;Signal;HPM_P1;HPM_P2
2022/09/06 00:00:14;;;;;;;;;;;;;;;;;;4925916;29;19919;-84
2022/09/06 00:02:40;;;;;;;;;;;;;;;;;;4919115;29;19929;-84
2022/09/06 00:05:05;;;;;;;;;;;;;;;;;;4921299;29;19919;-83
2022/09/06 00:07:30;;;;;;;;;;;;;;;;;;4917199;29;19919;-84
2022/09/06 00:09:55;;;;;;;;;;;;;;;;;;4923862;29;19926;-84
2022/09/06 00:12:21;;;;;;;;;;;;;;;;;;4919183;29;20014;-83
2022/09/06 00:14:46;;;;;;;;;;;;;;;;;;4925149;29;20018;-84
2022/09/06 00:17:11;;;;;;;;;;;;;;;;;;4921128;29;19927;-84
2022/09/06 00:19:36;;;;;;;;;;;;;;;;;;4937413;28;20053;-83
2022/09/06 00:22:01;;;;;;;;;;;;;;;;;;4921879;29;19923;-84
2022/09/06 00:24:26;;;;;;;;;;;;;;;;;;4935464;28;20029;-84
2022/09/06 00:26:52;;;;;;;;;;;;;;;;;;4922680;29;19963;-85
2022/09/06 00:29:17;;;;;;;;;;;;;;;;;;4923379;29;19915;-84
2022/09/06 00:31:42;;;;;;;;;;;;;;;;;;4923689;29;19922;-84
2022/09/06 00:34:07;;;;;;;;;;;;;;;;;;4924946;29;19916;-84
2022/09/06 00:36:32;;;;;;;;;;;;;;;;;;4924271;28;19929;-84
2022/09/06 00:38:57;;;;;;;;;;;;;;;;;;4918381;29;19923;-84
2022/09/06 00:41:23;;;;;;;;;;;;;;;;;;4922557;29;20348;-83
2022/09/06 00:43:48;;;;;;;;;;;;;;;;;;4938097;29;19911;-83
2022/09/06 00:46:13;;;;;;;;;;;;;;;;;;4930075;29;19915;-84
2022/09/06 00:48:38;;;;;;;;;;;;;;;;;;4933222;29;19919;-84
2022/09/06 00:51:03;;;;;;;;;;;;;;;;;;4933690;28;20323;-83
2022/09/06 00:53:28;;;;;;;;;;;;;;;;;;4931733;29;19998;-83
2022/09/06 00:55:53;;;;;;;;;;;;;;;;;;4927956;29;19979;-83
2022/09/06 00:58:19;;;;;;;;;;;;;;;;;;4929905;29;19935;-83
2022/09/06 01:00:44;;;;;;;;;;;;;;;;;;4930707;29;19919;-84
2022/09/06 01:03:09;;;;;;;;;;;;;;;;;;4936485;29;19915;-85
2022/09/06 01:05:34;;;;;;;;;;;;;;;;;;4932897;29;20323;-84
2022/09/06 01:07:59;;;;;;;;;;;;;;;;;;4932908;28;19917;-84
2022/09/06 01:10:24;;;;;;;;;;;;;;;;;;4934171;29;19922;-84
2022/09/06 01:12:50;;;;;;;;;;;;;;;;;;4935116;28;19919;-84
2022/09/06 01:15:15;;;;;;;;;;;;;;;;;;4930960;29;19921;-83
2022/09/06 01:17:40;;;;;;;;;;;;;;;;;;4929576;29;19962;-84
2022/09/06 01:20:08;;;;;;;;;;;;;;;;;;4939424;29;19957;-83
2022/09/06 01:22:34;;;;;;;;;;;;;;;;;;4937107;29;19915;-85
2022/09/06 01:24:59;;;;;;;;;;;;;;;;;;4933013;29;19919;-83
2022/09/06 01:27:24;;;;;;;;;;;;;;;;;;4934706;29;19921;-84
2022/09/06 01:29:49;;;;;;;;;;;;;;;;;;4924501;29;19918;-83
2022/09/06 01:32:14;;;;;;;;;;;;;;;;;;4929694;29;19919;-84
2022/09/06 01:34:40;;;;;;;;;;;;;;;;;;4932466;29;20389;-83
2022/09/06 01:37:05;;;;;;;;;;;;;;;;;;4927921;29;19915;-83
2022/09/06 01:39:30;;;;;;;;;;;;;;;;;;4936687;29;19926;-83
2022/09/06 01:41:55;;;;;;;;;;;;;;;;;;4930541;29;19922;-84
2022/09/06 01:44:20;;;;;;;;;;;;;;;;;;4932549;29;19972;-84
2022/09/06 01:46:45;;;;;;;;;;;;;;;;;;4931960;29;19914;-84
2022/09/06 01:49:11;;;;;;;;;;;;;;;;;;4926218;29;19962;-85
2022/09/06 01:51:36;;;;;;;;;;;;;;;;;;4929014;29;20018;-84
2022/09/06 01:54:01;;;;;;;;;;;;;;;;;;4930909;29;19937;-85
2022/09/06 01:56:26;;;;;;;;;;;;;;;;;;4929951;29;19919;-84
2022/09/06 01:58:51;;;;;;;;;;;;;;;;;;4937474;29;19929;-84
2022/09/06 02:01:17;;;;;;;;;;;;;;;;;;4936761;29;19991;-85
2022/09/06 02:03:43;;;;;;;;;;;;;;;;;;4935877;29;19915;-85
2022/09/06 02:06:08;;;;;;;;;;;;;;;;;;4929499;29;20323;-83
2022/09/06 02:08:33;;;;;;;;;;;;;;;;;;4936488;29;19919;-84
2022/09/06 02:10:58;;;;;;;;;;;;;;;;;;4929625;29;20355;-83
2022/09/06 02:13:23;;;;;;;;;;;;;;;;;;4926793;29;19922;-83
2022/09/06 02:15:48;;;;;;;;;;;;;;;;;;4931285;29;20408;-83
2022/09/06 02:18:14;;;;;;;;;;;;;;;;;;4931009;29;20043;-83
2022/09/06 02:20:39;;;;;;;;;;;;;;;;;;4929182;29;19919;-84
2022/09/06 02:23:04;;;;;;;;;;;;;;;;;;4929784;29;19958;-84
2022/09/06 02:25:29;;;;;;;;;;;;;;;;;;4936679;29;19915;-84
2022/09/06 02:27:54;;;;;;;;;;;;;;;;;;4926980;29;19922;-84
2022/09/06 02:30:19;;;;;;;;;;;;;;;;;;4928801;29;19914;-83
2022/09/06 02:32:44;;;;;;;;;;;;;;;;;;4927240;29;19919;-84
2022/09/06 02:35:10;;;;;;;;;;;;;;;;;;4932916;29;20021;-83
2022/09/06 02:37:35;;;;;;;;;;;;;;;;;;4927746;29;19915;-84
2022/09/06 02:40:00;;;;;;;;;;;;;;;;;;4929738;29;20747;-84
2022/09/06 02:42:25;;;;;;;;;;;;;;;;;;4933224;29;20416;-84
2022/09/06 02:44:50;;;;;;;;;;;;;;;;;;4940891;29;19915;-84
2022/09/06 02:47:15;;;;;;;;;;;;;;;;;;4936428;29;20477;-83
2022/09/06 02:49:41;;;;;;;;;;;;;;;;;;4932431;29;19926;-83
2022/09/06 02:52:06;;;;;;;;;;;;;;;;;;4932410;29;19944;-84
2022/09/06 02:54:31;;;;;;;;;;;;;;;;;;4937306;29;19925;-83
2022/09/06 02:56:56;;;;;;;;;;;;;;;;;;4937525;29;19919;-84
2022/09/06 02:59:21;;;;;;;;;;;;;;;;;;4931327;29;20019;-84
2022/09/06 03:01:46;;;;;;;;;;;;;;;;;;4932418;29;20145;-84
2022/09/06 03:04:12;;;;;;;;;;;;;;;;;;4941498;29;20808;-83
2022/09/06 03:06:37;;;;;;;;;;;;;;;;;;4932061;29;20061;-83
2022/09/06 03:09:02;;;;;;;;;;;;;;;;;;4938427;29;19922;-84
2022/09/06 03:11:27;;;;;;;;;;;;;;;;;;4929252;28;19962;-83
2022/09/06 03:13:53;;;;;;;;;;;;;;;;;;4933686;29;19918;-84
2022/09/06 03:16:18;;;;;;;;;;;;;;;;;;4933398;29;19915;-84
2022/09/06 03:18:43;;;;;;;;;;;;;;;;;;4935589;29;19922;-84
2022/09/06 03:21:08;;;;;;;;;;;;;;;;;;4941190;29;19957;-84
2022/09/06 03:23:33;;;;;;;;;;;;;;;;;;4933725;29;19911;-84
2022/09/06 03:25:59;;;;;;;;;;;;;;;;;;4939081;29;19922;-84
2022/09/06 03:28:24;;;;;;;;;;;;;;;;;;4935426;29;19954;-83
2022/09/06 03:30:49;;;;;;;;;;;;;;;;;;4933162;28;19923;-83
2022/09/06 03:33:15;;;;;;;;;;;;;;;;;;4930712;29;19953;-84
2022/09/06 03:35:40;;;;;;;;;;;;;;;;;;4939570;29;19946;-84
2022/09/06 03:38:05;;;;;;;;;;;;;;;;;;4936729;29;19933;-84
2022/09/06 03:40:31;;;;;;;;;;;;;;;;;;4928622;29;19929;-83
2022/09/06 03:42:56;;;;;;;;;;;;;;;;;;4933596;29;19915;-83
2022/09/06 03:45:21;;;;;;;;;;;;;;;;;;4931976;29;20409;-83
2022/09/06 03:47:46;;;;;;;;;;;;;;;;;;4929679;29;19919;-83
2022/09/06 03:50:11;;;;;;;;;;;;;;;;;;4928340;29;19918;-84
2022/09/06 03:52:37;;;;;;;;;;;;;;;;;;4933991;29;19930;-84
2022/09/06 03:55:02;;;;;;;;;;;;;;;;;;4937128;28;19992;-83
2022/09/06 03:57:27;;;;;;;;;;;;;;;;;;4940450;29;20563;-84
2022/09/06 03:59:52;;;;;;;;;;;;;;;;;;4934563;29;19983;-84
2022/09/06 04:02:17;;;;;;;;;;;;;;;;;;4932962;29;19915;-83
2022/09/06 04:04:42;;;;;;;;;;;;;;;;;;4930733;29;19941;-83
2022/09/06 04:07:08;;;;;;;;;;;;;;;;;;4933926;29;19934;-84
2022/09/06 04:09:33;;;;;;;;;;;;;;;;;;4937161;29;19919;-84
2022/09/06 04:11:58;;;;;;;;;;;;;;;;;;4930417;29;19926;-83
2022/09/06 04:14:24;;;;;;;;;;;;;;;;;;4932074;29;19915;-84
2022/09/06 04:16:49;;;;;;;;;;;;;;;;;;4935470;29;19915;-83
2022/09/06 04:19:14;;;;;;;;;;;;;;;;;;4942443;29;20320;-83
2022/09/06 04:21:39;;;;;;;;;;;;;;;;;;4935678;29;20397;-83
2022/09/06 04:24:04;;;;;;;;;;;;;;;;;;4939896;29;19921;-84
2022/09/06 04:26:30;;;;;;;;;;;;;;;;;;4938009;29;20034;-83
2022/09/06 04:28:55;;;;;;;;;;;;;;;;;;4932880;28;19915;-83
2022/09/06 04:31:20;;;;;;;;;;;;;;;;;;4935312;29;19915;-83
2022/09/06 04:33:45;;;;;;;;;;;;;;;;;;4934797;29;19919;-83
2022/09/06 04:36:10;;;;;;;;;;;;;;;;;;4930687;29;19943;-83
2022/09/06 04:38:35;;;;;;;;;;;;;;;;;;4936868;29;19919;-84
2022/09/06 04:41:01;;;;;;;;;;;;;;;;;;4940962;28;19930;-84
2022/09/06 04:43:26;;;;;;;;;;;;;;;;;;4938654;29;19915;-84
2022/09/06 04:45:51;;;;;;;;;;;;;;;;;;4931745;29;20383;-84
2022/09/06 04:48:16;;;;;;;;;;;;;;;;;;4932612;29;20347;-83
2022/09/06 04:50:41;;;;;;;;;;;;;;;;;;4936231;28;19918;-83
2022/09/06 04:53:06;;;;;;;;;;;;;;;;;;4938803;29;19937;-83
2022/09/06 04:55:32;;;;;;;;;;;;;;;;;;4933432;29;19922;-83
2022/09/06 04:57:58;;;;;;;;;;;;;;;;;;4938031;29;19925;-83
2022/09/06 05:00:24;;;;;;;;;;;;;;;;;;4930787;29;19922;-84
2022/09/06 05:02:49;;;;;;;;;;;;;;;;;;4934322;29;19915;-83
2022/09/06 05:05:14;;;;;;;;;;;;;;;;;;4938482;29;19914;-83
2022/09/06 05:07:39;;;;;;;;;;;;;;;;;;4932029;29;19974;-83
2022/09/06 05:10:05;;;;;;;;;;;;;;;;;;4933309;29;19914;-84
2022/09/06 05:12:30;;;;;;;;;;;;;;;;;;4937652;28;20535;-83
2022/09/06 05:14:55;;;;;;;;;;;;;;;;;;4935866;29;20373;-83
2022/09/06 05:17:20;;;;;;;;;;;;;;;;;;4937947;29;19923;-84
2022/09/06 05:19:47;;;;;;;;;;;;;;;;;;4935002;29;20379;-83
2022/09/06 05:22:13;;;;;;;;;;;;;;;;;;4934755;28;19994;-84
2022/09/06 05:24:38;;;;;;;;;;;;;;;;;;4930046;29;19930;-83
2022/09/06 05:27:04;;;;;;;;;;;;;;;;;;4939374;28;20513;-83
2022/09/06 05:29:29;;;;;;;;;;;;;;;;;;4941594;29;20456;-84
2022/09/06 05:31:54;;;;;;;;;;;;;;;;;;4927356;28;19919;-82
2022/09/06 05:34:19;;;;;;;;;;;;;;;;;;4935541;29;20006;-82
2022/09/06 05:36:45;;;;;;;;;;;;;;;;;;4934306;29;19974;-82
2022/09/06 05:39:10;;;;;;;;;;;;;;;;;;4930694;29;19926;-83
2022/09/06 05:41:35;;;;;;;;;;;;;;;;;;4932678;29;20470;-82
2022/09/06 05:44:00;;;;;;;;;;;;;;;;;;4936474;29;19970;-82
2022/09/06 05:46:25;;;;;;;;;;;;;;;;;;4928793;29;19927;-82
2022/09/06 05:48:50;;;;;;;;;;;;;;;;;;4925830;29;20397;-82
2022/09/06 05:51:16;;;;;;;;;;;;;;;;;;4925053;28;19978;-82
2022/09/06 05:53:41;;;;;;;;;;;;;;;;;;4933390;29;21573;-82
2022/09/06 05:56:06;;;;;;;;;;;;;;;;;;4934408;29;19921;-82
2022/09/06 05:58:31;;;;;;;;;;;;;;;;;;4932896;29;20092;-82
2022/09/06 06:00:56;;;;;;;;;;;;;;;;;;4928373;29;19923;-82
2022/09/06 06:03:21;;;;;;;;;;;;;;;;;;4929740;29;19995;-82
2022/09/06 06:05:47;;;;;;;;;;;;;;;;;;4928989;29;20357;-82
2022/09/06 06:08:12;;;;;;;;;;;;;;;;;;4928505;29;19926;-82
2022/09/06 06:10:38;;;;;;;;;;;;;;;;;;4932441;28;19921;-82
2022/09/06 06:13:03;;;;;;;;;;;;;;;;;;4926932;29;19929;-82
2022/09/06 06:15:28;;;;;;;;;;;;;;;;;;4930561;29;19923;-83
2022/09/06 06:17:53;;;;;;;;;;;;;;;;;;4938726;29;19963;-82
2022/09/06 06:20:19;;;;;;;;;;;;;;;;;;4937263;29;19914;-82
2022/09/06 06:22:44;;;;;;;;;;;;;;;;;;4938522;28;19915;-82
2022/09/06 06:25:09;;;;;;;;;;;;;;;;;;4939376;29;19915;-82
2022/09/06 06:27:35;;;;;;;;;;;;;;;;;;4934245;29;19915;-82
2022/09/06 06:30:01;;;;;;;;;;;;;;;;;;4939362;29;19920;-82
2022/09/06 06:32:26;;;;;;;;;;;;;;;;;;4931704;29;19919;-82
2022/09/06 06:34:51;;;;;;;;;;;;;;;;;;4939198;29;20380;-82
2022/09/06 06:37:16;;;;;;;;;;;;;;;;;;4934891;29;19915;-82
2022/09/06 06:39:41;;;;;;;;;;;;;;;;;;4936758;29;20021;-82
2022/09/06 06:42:07;;;;;;;;;;;;;;;;;;4928856;29;19926;-82
2022/09/06 06:44:33;;;;;;;;;;;;;;;;;;4935211;29;19926;-82
2022/09/06 06:47:00;;;;;;;;;;;;;;;;;;4935532;29;19942;-82
2022/09/06 06:49:27;;;;;;;;;;;;;;;;;;4939081;29;20274;-82
2022/09/06 06:51:52;;;;;;;;;;;;;;;;;;4933476;29;20429;-83
2022/09/06 06:54:17;;;;;;;;;;;;;;;;;;4934598;29;19922;-82
2022/09/06 06:56:44;;;;;;;;;;;;;;;;;;4937205;29;19919;-82
2022/09/06 06:59:09;;;;;;;;;;;;;;;;;;4931309;29;19918;-82
2022/09/06 07:01:34;;;;;;;;;;;;;;;;;;4930554;29;20285;-82
2022/09/06 07:04:02;;;;;;;;;;;;;;;;;;4937071;29;19921;-82
2022/09/06 07:06:27;;;;;;;;;;;;;;;;;;4933465;29;20296;-82
2022/09/06 07:08:52;;;;;;;;;;;;;;;;;;4932374;29;19998;-82
2022/09/06 07:11:18;;;;;;;;;;;;;;;;;;4934753;29;19915;-82
2022/09/06 07:13:43;;;;;;;;;;;;;;;;;;4938092;29;20291;-82
2022/09/06 07:16:08;;;;;;;;;;;;;;;;;;4931493;29;19921;-82
2022/09/06 07:18:33;;;;;;;;;;;;;;;;;;4934144;29;19939;-82
2022/09/06 07:20:59;;;;;;;;;;;;;;;;;;4937539;28;19974;-83
2022/09/06 07:23:24;;;;;;;;;;;;;;;;;;4929934;28;20400;-82
2022/09/06 07:25:49;;;;;;;;;;;;;;;;;;4930486;29;19921;-82
2022/09/06 07:28:14;;;;;;;;;;;;;;;;;;4930982;29;19919;-82
2022/09/06 07:30:39;;;;;;;;;;;;;;;;;;4933235;29;19925;-83
2022/09/06 07:33:05;;;;;;;;;;;;;;;;;;4941270;29;19927;-82
2022/09/06 07:35:30;;;;;;;;;;;;;;;;;;4933719;29;19926;-83
2022/09/06 07:37:55;;;;;;;;;;;;;;;;;;4927185;29;19946;-82
2022/09/06 07:40:20;;;;;;;;;;;;;;;;;;4934157;29;19914;-82
2022/09/06 07:42:45;;;;;;;;;;;;;;;;;;4938025;29;19929;-83
2022/09/06 07:45:11;;;;;;;;;;;;;;;;;;4933182;29;19919;-83
2022/09/06 07:47:36;;;;;;;;;;;;;;;;;;4938064;29;20034;-84
2022/09/06 07:50:01;;;;;;;;;;;;;;;;;;4930864;29;19941;-83
2022/09/06 07:52:26;;;;;;;;;;;;;;;;;;4933543;29;19971;-84
2022/09/06 07:54:52;;;;;;;;;;;;;;;;;;4933489;29;20002;-83
2022/09/06 07:57:17;;;;;;;;;;;;;;;;;;4934550;29;19922;-84
2022/09/06 07:59:42;;;;;;;;;;;;;;;;;;4933447;29;20295;-83
2022/09/06 08:02:07;;;;;;;;;;;;;;;;;;4927126;29;19976;-82
2022/09/06 08:04:33;;;;;;;;;;;;;;;;;;4932051;29;20424;-82
2022/09/06 08:07:00;;;;;;;;;;;;;;;;;;4928090;29;19923;-84
2022/09/06 08:09:25;;;;;;;;;;;;;;;;;;4930694;29;20377;-84
2022/09/06 08:11:51;;;;;;;;;;;;;;;;;;4939962;28;19915;-85
2022/09/06 08:14:16;;;;;;;;;;;;;;;;;;4936888;29;19921;-84
2022/09/06 08:16:41;;;;;;;;;;;;;;;;;;4927775;29;19919;-83
2022/09/06 08:19:11;;;;;;;;;;;;;;;;;;4926360;29;20412;-84
2022/09/06 08:21:36;;;;;;;;;;;;;;;;;;4929107;29;20433;-82
2022/09/06 08:24:01;;;;;;;;;;;;;;;;;;4927159;29;20002;-83
2022/09/06 08:26:26;;;;;;;;;;;;;;;;;;4931756;29;19918;-84
2022/09/06 08:28:51;;;;;;;;;;;;;;;;;;4929119;29;19962;-83
2022/09/06 08:31:17;;;;;;;;;;;;;;;;;;4938482;29;19922;-82
2022/09/06 08:33:43;;;;;;;;;;;;;;;;;;4927106;29;19923;-83
2022/09/06 08:36:08;;;;;;;;;;;;;;;;;;4929029;29;20829;-82
2022/09/06 08:38:33;;;;;;;;;;;;;;;;;;4922360;29;20462;-82
2022/09/06 08:40:58;;;;;;;;;;;;;;;;;;4928081;29;19931;-83
2022/09/06 08:43:23;;;;;;;;;;;;;;;;;;4926653;29;19978;-85
2022/09/06 08:45:49;;;;;;;;;;;;;;;;;;4931755;28;19930;-83
2022/09/06 08:48:14;;;;;;;;;;;;;;;;;;4931984;29;19947;-83
2022/09/06 08:50:39;;;;;;;;;;;;;;;;;;4926363;29;20867;-82
2022/09/06 08:53:04;;;;;;;;;;;;;;;;;;4924056;29;19922;-81
2022/09/06 08:55:30;;;;;;;;;;;;;;;;;;4927897;29;20463;-82
2022/09/06 08:57:55;;;;;;;;;;;;;;;;;;4933926;29;19926;-83
2022/09/06 09:00:21;;;;;;;;;;;;;;;;;;4928375;29;20293;-82
2022/09/06 09:02:47;;;;;;;;;;;;;;;;;;4926131;29;19919;-81
2022/09/06 09:05:12;;;;;;;;;;;;;;;;;;4928115;29;19997;-82
2022/09/06 09:07:37;;;;;;;;;;;;;;;;;;4932752;29;20311;-82
2022/09/06 09:10:02;;;;;;;;;;;;;;;;;;4929492;29;19926;-82
2022/09/06 09:12:28;;;;;;;;;;;;;;;;;;4928624;29;19919;-82
2022/09/06 09:14:53;;;;;;;;;;;;;;;;;;4928629;29;19915;-82
2022/09/06 09:17:21;;;;;;;;;;;;;;;;;;4924474;29;19918;-82
2022/09/06 09:19:46;;;;;;;;;;;;;;;;;;4933421;29;20810;-82
2022/09/06 09:22:12;;;;;;;;;;;;;;;;;;4929605;29;19919;-84
2022/09/06 09:24:38;;;;;;;;;;;;;;;;;;4930165;29;19922;-85
2022/09/06 09:27:03;;;;;;;;;;;;;;;;;;4930214;28;20300;-83
2022/09/06 09:29:28;;;;;;;;;;;;;;;;;;4929131;29;20448;-83
2022/09/06 09:31:54;;;;;;;;;;;;;;;;;;4928836;29;19930;-82
2022/09/06 09:34:19;;;;;;;;;;;;;;;;;;4929742;29;20317;-84
2022/09/06 09:36:45;;;;;;;;;;;;;;;;;;4933915;29;19919;-84
2022/09/06 09:39:10;;;;;;;;;;;;;;;;;;4931987;29;20010;-87
2022/09/06 09:41:37;;;;;;;;;;;;;;;;;;4930358;28;19919;-84
2022/09/06 09:44:02;;;;;;;;;;;;;;;;;;4923872;29;20492;-83
2022/09/06 09:46:28;;;;;;;;;;;;;;;;;;4934256;28;19925;-87
2022/09/06 09:48:54;;;;;;;;;;;;;;;;;;4927289;29;20661;-82
2022/09/06 09:51:19;;;;;;;;;;;;;;;;;;4930005;29;19923;-82
2022/09/06 09:53:44;;;;;;;;;;;;;;;;;;4926294;29;19915;-84
2022/09/06 09:56:09;;;;;;;;;;;;;;;;;;4932124;29;19915;-84
2022/09/06 09:58:34;;;;;;;;;;;;;;;;;;4932042;29;19947;-83
2022/09/06 10:00:59;;;;;;;;;;;;;;;;;;4928511;29;20273;-83
2022/09/06 10:03:25;;;;;;;;;;;;;;;;;;4931504;29;19957;-84
2022/09/06 10:05:50;;;;;;;;;;;;;;;;;;4937453;29;19926;-84
2022/09/06 10:08:15;;;;;;;;;;;;;;;;;;4935299;29;20002;-84
2022/09/06 10:10:41;;;;;;;;;;;;;;;;;;4939854;28;19969;-84
2022/09/06 10:13:06;;;;;;;;;;;;;;;;;;4933324;29;19914;-83
2022/09/06 10:15:31;;;;;;;;;;;;;;;;;;4933263;29;19915;-84
2022/09/06 10:17:57;;;;;;;;;;;;;;;;;;4931696;29;20570;-84
2022/09/06 10:20:22;;;;;;;;;;;;;;;;;;4930986;29;19922;-85
2022/09/06 10:22:48;;;;;;;;;;;;;;;;;;4931373;29;19966;-87
2022/09/06 10:25:14;;;;;;;;;;;;;;;;;;4938163;29;20025;-87
2022/09/06 10:27:39;;;;;;;;;;;;;;;;;;4937280;28;20370;-86
2022/09/06 10:30:04;;;;;;;;;;;;;;;;;;4929749;29;19970;-84
2022/09/06 10:32:30;;;;;;;;;;;;;;;;;;4936511;29;19918;-85
2022/09/06 10:34:55;;;;;;;;;;;;;;;;;;4932473;29;20374;-84
2022/09/06 10:37:20;;;;;;;;;;;;;;;;;;4930036;28;20421;-86
2022/09/06 10:39:45;;;;;;;;;;;;;;;;;;4934164;29;19919;-86
2022/09/06 10:42:10;;;;;;;;;;;;;;;;;;4933428;29;19919;-85
2022/09/06 10:44:35;;;;;;;;;;;;;;;;;;4934128;29;19926;-85
2022/09/06 10:47:01;;;;;;;;;;;;;;;;;;4933694;29;19969;-85
2022/09/06 10:49:27;;;;;;;;;;;;;;;;;;4928907;29;19918;-84
2022/09/06 10:51:52;;;;;;;;;;;;;;;;;;4933518;29;20070;-86
2022/09/06 10:54:17;;;;;;;;;;;;;;;;;;4934681;29;19990;-87
2022/09/06 10:56:42;;;;;;;;;;;;;;;;;;4938828;29;19923;-86
2022/09/06 10:59:08;;;;;;;;;;;;;;;;;;4935420;29;20031;-87
2022/09/06 11:21:16;;;;;;;;;;;;;;;;;;4852923;29;19931;-86
2022/09/06 11:23:50;;;;;;;;;;;;;;;;;;4852467;29;19924;-86
2022/09/06 11:26:18;;;;;;;;;;;;;;;;;;4881391;28;19914;-86
2022/09/06 11:28:52;;;;;;;;;;;;;;;;;;4930201;29;20571;-86
2022/09/06 11:31:19;;;;;;;;;;;;;;;;;;4929183;29;19899;-85
2022/09/06 11:33:44;;;;;;;;;;;;;;;;;;4926398;29;20326;-86
2022/09/06 11:36:17;;;;;;;;;;;;;;;;;;4930232;29;19947;-85
2022/09/06 11:38:55;;;;;;;;;;;;;;;;;;;;;
2022/09/06 11:41:22;;;;;;;;;;;;;;;;;;4933877;29;19929;-84
2022/09/06 11:43:48;;;;;;;;;;;;;;;;;;4930047;28;19926;-85
2022/09/06 11:46:23;;;;;;;;;;;;;;;;;;;;;
2022/09/06 11:49:00;;;;;;;;;;;;;;;;;;4929715;29;20530;-85
2022/09/06 12:16:13;;;;;;;;;;;;;;;;;;4926006;29;19930;-86
2022/09/06 15:20:55;;;;;;;;;;;;;;;;;;4942737;28;19922;-85
2022/09/06 15:23:23;;;;;;;;;;;;;;;;;;4928445;29;19919;-86
2022/09/06 15:26:04;;;;;;;;;;;;;;;;;;;;;
2022/09/06 15:31:21;;;;;;;;;;;;;;;;;;4891677;29;19922;-85
2022/09/06 15:33:54;;;;;;;;;;;;;;;;;;4925810;29;19925;-86
2022/09/06 15:39:13;;;;;;;;;;;;;;;;;;4932125;29;19974;-86
2022/09/06 15:44:40;;;;;;;;;;;;;;;;;;4927033;29;19926;-86
2022/09/06 16:31:19;;;;;;;;;;;;;;;;;;4953066;28;20402;-86
2022/09/06 16:45:01;;;;;;;;;;;;;;;;;;;;;
2022/09/06 16:47:26;;;;;;;;;;;;;;;;;;4951318;28;20303;-85
2022/09/06 16:50:02;;;;;;;;;;;;;;;;;;;;;
2022/09/06 21:34:15;;;;;;;;;;;;;;;;;;4948197;28;20415;-87
2022/09/06 21:36:40;;;;;;;;;;;;;;;;;;4948236;28;19914;-87
2022/09/06 21:39:05;;;;;;;;;;;;;;;;;;4949989;28;20312;-86
2022/09/06 21:41:30;;;;;;;;;;;;;;;;;;4943953;28;19921;-85
2022/09/06 21:43:55;;;;;;;;;;;;;;;;;;4928611;28;19922;-87
2022/09/06 21:46:21;;;;;;;;;;;;;;;;;;4926532;29;19921;-87
2022/09/06 21:48:46;;;;;;;;;;;;;;;;;;4925800;28;20305;-88
2022/09/06 21:51:14;;;;;;;;;;;;;;;;;;4928165;29;19922;-87
2022/09/06 21:53:39;;;;;;;;;;;;;;;;;;4926099;29;19973;-86
2022/09/06 21:56:04;;;;;;;;;;;;;;;;;;4925459;28;19923;-86
2022/09/06 21:58:30;;;;;;;;;;;;;;;;;;4926745;29;20400;-86
2022/09/06 22:00:56;;;;;;;;;;;;;;;;;;4925369;29;19915;-87
2022/09/06 22:03:21;;;;;;;;;;;;;;;;;;4924383;29;21535;-87
2022/09/06 22:05:48;;;;;;;;;;;;;;;;;;4917310;29;19915;-86
2022/09/06 22:08:14;;;;;;;;;;;;;;;;;;4923002;28;19926;-88
2022/09/06 22:10:39;;;;;;;;;;;;;;;;;;4925750;29;19915;-86
2022/09/06 22:13:04;;;;;;;;;;;;;;;;;;4924555;29;19919;-87
2022/09/06 22:15:29;;;;;;;;;;;;;;;;;;4922417;29;19990;-86
2022/09/06 22:17:55;;;;;;;;;;;;;;;;;;4923120;29;19942;-88
2022/09/06 22:20:21;;;;;;;;;;;;;;;;;;4926258;29;20530;-86
2022/09/06 22:22:46;;;;;;;;;;;;;;;;;;4923091;29;19922;-87
2022/09/06 22:25:12;;;;;;;;;;;;;;;;;;4930413;28;19915;-87
2022/09/06 22:27:38;;;;;;;;;;;;;;;;;;4923723;29;19921;-87
2022/09/06 22:30:03;;;;;;;;;;;;;;;;;;4925642;29;20001;-87
2022/09/06 22:32:28;;;;;;;;;;;;;;;;;;4929606;29;19919;-87
2022/09/06 22:34:53;;;;;;;;;;;;;;;;;;4931401;29;19915;-86
2022/09/06 22:37:19;;;;;;;;;;;;;;;;;;4920783;29;20346;-87
2022/09/06 22:39:44;;;;;;;;;;;;;;;;;;4921087;29;19956;-86
2022/09/06 22:42:09;;;;;;;;;;;;;;;;;;4929676;29;19923;-87
2022/09/06 22:44:34;;;;;;;;;;;;;;;;;;4927823;29;19973;-86
2022/09/06 22:46:59;;;;;;;;;;;;;;;;;;4927014;29;19919;-86
2022/09/06 22:49:24;;;;;;;;;;;;;;;;;;4929681;29;19930;-86
2022/09/06 22:51:49;;;;;;;;;;;;;;;;;;4934682;29;19915;-87
2022/09/06 22:54:15;;;;;;;;;;;;;;;;;;4928328;29;20369;-86
2022/09/06 22:56:40;;;;;;;;;;;;;;;;;;4935373;28;19961;-86
2022/09/06 22:59:05;;;;;;;;;;;;;;;;;;4924198;29;20031;-86
2022/09/06 23:01:31;;;;;;;;;;;;;;;;;;4933727;29;19919;-87
2022/09/06 23:03:56;;;;;;;;;;;;;;;;;;4931290;28;19921;-86
2022/09/06 23:06:22;;;;;;;;;;;;;;;;;;4932573;29;19915;-88
2022/09/06 23:08:47;;;;;;;;;;;;;;;;;;4936272;29;20003;-87
2022/09/06 23:11:12;;;;;;;;;;;;;;;;;;4934673;29;20059;-88
2022/09/06 23:13:37;;;;;;;;;;;;;;;;;;4935638;29;19911;-87
2022/09/06 23:16:02;;;;;;;;;;;;;;;;;;4929587;29;19915;-88
2022/09/06 23:18:28;;;;;;;;;;;;;;;;;;4933012;28;19939;-88
2022/09/06 23:20:53;;;;;;;;;;;;;;;;;;4939721;29;19921;-87
2022/09/06 23:23:18;;;;;;;;;;;;;;;;;;4929968;29;19953;-87
2022/09/06 23:25:43;;;;;;;;;;;;;;;;;;4935929;28;19922;-88
2022/09/06 23:28:08;;;;;;;;;;;;;;;;;;4937215;28;19921;-87
2022/09/06 23:30:33;;;;;;;;;;;;;;;;;;4928701;29;19915;-87
2022/09/06 23:32:59;;;;;;;;;;;;;;;;;;4929547;29;19925;-87
2022/09/06 23:35:24;;;;;;;;;;;;;;;;;;4929942;29;20473;-87
2022/09/06 23:37:50;;;;;;;;;;;;;;;;;;4933096;29;19926;-87
2022/09/06 23:40:15;;;;;;;;;;;;;;;;;;4927475;29;19942;-87
2022/09/06 23:42:40;;;;;;;;;;;;;;;;;;4932261;29;20377;-87
2022/09/06 23:45:05;;;;;;;;;;;;;;;;;;4938072;29;19914;-87
2022/09/06 23:47:30;;;;;;;;;;;;;;;;;;4937840;29;20356;-87
2022/09/06 23:49:56;;;;;;;;;;;;;;;;;;4923408;29;19922;-87
2022/09/06 23:52:21;;;;;;;;;;;;;;;;;;4930128;29;19915;-88
2022/09/06 23:54:46;;;;;;;;;;;;;;;;;;4931113;28;19925;-87
2022/09/06 23:57:11;;;;;;;;;;;;;;;;;;4935530;29;20305;-89
2022/09/06 23:59:36;;;;;;;;;;;;;;;;;;4927739;28;19967;-87
